Hebron, New Hampshire
Current Conditions -  °F | °C
As of 3:15 PM on Wednesday 17 Dec 2014 (Local Time) from K1P1 Reporting Station
Drizzle Drizzle  
Wind Chill:   Ceiling: 2900
Heat Index:   Visibility: 10mi
Dew Point:   Wind: 6mph
Humidity: 100%   Direction: 290°WNW
Pressure: 29.71"   Gusts: NA
Location:  43.69°N, 71.81°W
Report Text: K1P1 172015Z AUTO 29005KT 10SM -DZ BKN029 OVC035 03/03 A2971 RMK AO2 T00320032
Loading
Personal Weather Stations






























Interactive Weather Map New forecast layout! Learn more

10-Day Weather Forecast

Advertisements
Track Severe Weather on mobile